Time;durP1;ratioP1;P1;durP2;ratioP2;P2;SDS_P1;SDS_P2;PMS_P1;PMS_P2;Temp;Humidity;BMP_temperature;BMP_pressure;BME280_temperature;BME280_humidity;BME280_pressure;Samples;Min_cycle;Max_cycle;Signal;HPM_P1;HPM_P2
2022/05/08 00:00:43;;;;;;;;;;;;;;;10.12;73.64;101050.30;85688;1336;23195;-75
2022/05/08 00:02:52;;;;;;;;;;;;;;;10.13;73.63;101050.80;85763;1336;22504;-74
2022/05/08 00:04:56;;;;;;;;;;;;;;;10.14;73.73;101047.81;85770;1338;23098;-74
2022/05/08 00:07:01;;;;;;;;;;;;;;;10.14;73.55;101050.07;85753;1330;22587;-75
2022/05/08 00:09:05;;;;;;;;;;;;;;;10.16;73.57;101058.91;85774;1338;22550;-74
2022/05/08 00:11:10;;;;;;;;;;;;;;;10.19;73.49;101063.55;85659;1336;23305;-74
2022/05/08 00:13:15;;;;;;;;;;;;;;;10.19;73.44;101071.73;85701;1337;23164;-73
2022/05/08 00:15:22;;;;;;;;;;;;;;;10.19;73.39;101071.04;85752;1336;22511;-74
2022/05/08 00:17:29;;;;;;;;;;;;;;;10.19;73.16;101080.80;85676;1335;22634;-76
2022/05/08 00:19:34;;;;;;;;;;;;;;;10.20;72.95;101081.31;85756;1338;23113;-74
2022/05/08 00:21:39;;;;;;;;;;;;;;;10.20;72.88;101079.05;85701;1336;23209;-75
2022/05/08 00:23:44;;;;;;;;;;;;;;;10.20;72.97;101076.27;85531;1338;22593;-74
2022/05/08 00:25:48;;;;;;;;;;;;;;;10.20;72.87;101072.26;85646;1339;23274;-74
2022/05/08 00:27:56;;;;;;;;;;;;;;;10.19;72.83;101077.30;85645;1335;23453;-75
2022/05/08 00:30:01;;;;;;;;;;;;;;;10.18;72.86;101076.83;85686;1337;22486;-75
2022/05/08 00:32:08;;;;;;;;;;;;;;;10.19;72.78;101076.30;85669;1336;23107;-75
2022/05/08 00:34:15;;;;;;;;;;;;;;;10.17;72.75;101074.58;85680;1337;22460;-74
2022/05/08 00:36:20;;;;;;;;;;;;;;;10.18;72.86;101070.56;85674;1336;23064;-75
2022/05/08 00:38:24;;;;;;;;;;;;;;;10.17;73.07;101068.48;85686;1335;23446;-75
2022/05/08 00:40:32;;;;;;;;;;;;;;;10.18;73.17;101064.28;85689;1336;23171;-74
2022/05/08 00:42:41;;;;;;;;;;;;;;;10.18;73.17;101064.45;85680;1337;23036;-75
2022/05/08 00:44:46;;;;;;;;;;;;;;;10.17;73.23;101066.55;85742;1336;22522;-75
2022/05/08 00:46:50;;;;;;;;;;;;;;;10.18;73.43;101060.45;85669;1339;23174;-75
2022/05/08 00:48:55;;;;;;;;;;;;;;;10.17;73.61;101059.58;85772;1336;22452;-74
2022/05/08 00:50:59;;;;;;;;;;;;;;;10.17;73.84;101057.14;85672;1337;23091;-73
2022/05/08 00:53:03;;;;;;;;;;;;;;;10.18;73.99;101053.98;85769;1336;22493;-74
2022/05/08 00:55:10;;;;;;;;;;;;;;;10.20;74.10;101053.77;85043;1337;1002540;-75
2022/05/08 00:57:15;;;;;;;;;;;;;;;10.24;74.05;101053.50;85691;1336;24163;-74
2022/05/08 00:59:20;;;;;;;;;;;;;;;10.27;74.01;101055.18;85685;1336;22502;-74
2022/05/08 01:01:24;;;;;;;;;;;;;;;10.29;74.06;101051.29;85766;1336;22627;-73
2022/05/08 01:03:29;;;;;;;;;;;;;;;10.31;74.09;101048.81;85534;1339;22523;-75
2022/05/08 01:05:41;;;;;;;;;;;;;;;10.32;74.05;101049.30;85699;1335;23184;-75
2022/05/08 01:07:49;;;;;;;;;;;;;;;10.33;74.10;101045.08;85696;1335;22485;-74
2022/05/08 01:09:55;;;;;;;;;;;;;;;10.37;74.47;101043.78;85692;1339;22985;-75
2022/05/08 01:11:59;;;;;;;;;;;;;;;10.39;74.60;101042.49;85687;1336;23117;-74
2022/05/08 01:14:04;;;;;;;;;;;;;;;10.41;74.62;101043.84;85682;1336;22455;-75
2022/05/08 01:16:12;;;;;;;;;;;;;;;10.44;74.53;101045.33;85767;1338;23136;-77
2022/05/08 01:18:19;;;;;;;;;;;;;;;10.47;74.42;101044.18;85769;1336;22472;-75
2022/05/08 01:20:27;;;;;;;;;;;;;;;10.49;74.53;101040.84;85777;1336;22589;-75
2022/05/08 01:22:34;;;;;;;;;;;;;;;10.51;74.69;101038.35;85686;1335;22542;-75
2022/05/08 01:24:42;;;;;;;;;;;;;;;10.53;74.61;101037.23;85765;1337;22605;-74
2022/05/08 01:26:47;;;;;;;;;;;;;;;10.56;74.77;101032.95;85674;1335;22491;-75
2022/05/08 01:28:52;;;;;;;;;;;;;;;10.60;74.85;101031.82;85684;1335;23020;-74
2022/05/08 01:30:56;;;;;;;;;;;;;;;10.64;75.02;101029.59;85779;1337;23051;-74
2022/05/08 01:33:04;;;;;;;;;;;;;;;10.70;74.99;101033.46;85674;1339;23030;-74
2022/05/08 01:35:09;;;;;;;;;;;;;;;10.76;74.90;101039.91;85770;1338;22468;-73
2022/05/08 01:37:14;;;;;;;;;;;;;;;10.83;74.74;101035.52;85701;1333;22716;-74
2022/05/08 01:39:21;;;;;;;;;;;;;;;10.92;74.69;101034.55;85769;1335;23089;-74
2022/05/08 01:41:29;;;;;;;;;;;;;;;10.98;74.51;101034.75;85745;1336;22529;-73
2022/05/08 01:43:36;;;;;;;;;;;;;;;11.04;74.46;101031.61;85705;1336;22492;-74
2022/05/08 01:45:40;;;;;;;;;;;;;;;11.09;74.56;101034.76;85769;1338;23212;-75
2022/05/08 01:50:13;;;;;;;;;;;;;;;11.16;74.66;101037.73;85685;1335;22522;-73
2022/05/08 01:52:17;;;;;;;;;;;;;;;11.17;74.56;101038.39;85679;1335;22582;-74
2022/05/08 01:54:25;;;;;;;;;;;;;;;11.18;74.54;101043.06;85558;1336;22433;-75
2022/05/08 01:56:33;;;;;;;;;;;;;;;11.17;74.62;101040.11;85570;1337;23179;-74
2022/05/08 01:58:38;;;;;;;;;;;;;;;11.16;74.72;101040.48;85739;1336;23173;-74
2022/05/08 02:00:42;;;;;;;;;;;;;;;11.14;74.55;101036.38;85780;1336;23126;-75
2022/05/08 02:02:48;;;;;;;;;;;;;;;11.13;74.68;101036.41;85680;1339;23209;-74
2022/05/08 02:04:56;;;;;;;;;;;;;;;11.13;74.79;101039.88;85666;1339;22475;-74
2022/05/08 02:07:05;;;;;;;;;;;;;;;11.12;74.57;101038.00;85760;1336;23026;-72
2022/05/08 02:09:12;;;;;;;;;;;;;;;11.12;74.73;101040.96;85571;1336;23182;-72
2022/05/08 02:11:18;;;;;;;;;;;;;;;11.10;74.63;101037.16;85745;1336;23176;-72
2022/05/08 02:13:22;;;;;;;;;;;;;;;11.10;74.76;101039.64;85659;1339;22563;-73
2022/05/08 02:15:29;;;;;;;;;;;;;;;11.09;74.67;101040.02;85668;1336;22458;-73
2022/05/08 02:17:34;;;;;;;;;;;;;;;11.06;74.74;101042.54;85682;1335;23147;-73
2022/05/08 02:19:38;;;;;;;;;;;;;;;11.04;74.98;101043.30;85680;1339;23035;-72
2022/05/08 02:21:43;;;;;;;;;;;;;;;11.04;75.13;101043.81;85769;1338;22573;-72
2022/05/08 02:23:51;;;;;;;;;;;;;;;11.04;74.99;101042.61;85689;1335;22508;-73
2022/05/08 02:25:56;;;;;;;;;;;;;;;11.01;75.08;101039.71;85759;1337;22453;-73
2022/05/08 02:28:01;;;;;;;;;;;;;;;10.99;75.16;101035.26;85780;1336;22890;-74
2022/05/08 02:30:10;;;;;;;;;;;;;;;10.97;75.33;101035.11;85518;1338;23026;-74
2022/05/08 02:32:17;;;;;;;;;;;;;;;10.96;75.33;101034.44;85679;1337;22474;-73
2022/05/08 02:34:25;;;;;;;;;;;;;;;10.98;75.21;101031.95;85748;1335;23009;-73
2022/05/08 02:36:30;;;;;;;;;;;;;;;10.98;75.38;101033.86;85660;1337;23186;-73
2022/05/08 02:38:34;;;;;;;;;;;;;;;10.97;75.29;101034.77;85768;1336;22488;-73
2022/05/08 02:40:41;;;;;;;;;;;;;;;10.96;75.07;101037.09;85677;1340;23309;-73
2022/05/08 02:42:46;;;;;;;;;;;;;;;10.96;75.43;101038.14;85765;1336;22483;-72
2022/05/08 02:44:50;;;;;;;;;;;;;;;10.95;75.40;101040.23;85681;1336;22471;-72
2022/05/08 02:46:55;;;;;;;;;;;;;;;10.97;75.23;101040.70;85752;1338;23251;-72
2022/05/08 02:49:02;;;;;;;;;;;;;;;11.01;75.13;101038.34;85687;1339;23175;-74
2022/05/08 02:51:10;;;;;;;;;;;;;;;11.03;75.31;101036.16;85670;1336;22432;-73
2022/05/08 02:53:14;;;;;;;;;;;;;;;11.03;75.46;101037.38;85781;1336;22581;-73
2022/05/08 03:00:14;;;;;;;;;;;;;;;11.12;75.53;101037.80;85669;1336;23208;-72
2022/05/08 03:02:21;;;;;;;;;;;;;;;11.16;75.36;101037.00;85771;1338;22522;-72
2022/05/08 03:04:26;;;;;;;;;;;;;;;11.21;75.38;101034.77;85768;1334;23155;-73
2022/05/08 03:06:31;;;;;;;;;;;;;;;11.22;75.36;101041.18;85775;1338;22629;-72
2022/05/08 03:08:36;;;;;;;;;;;;;;;11.24;75.36;101044.98;85676;1336;22517;-72
2022/05/08 03:13:06;;;;;;;;;;;;;;;11.26;75.20;101047.54;85668;1336;23139;-72
2022/05/08 03:15:12;;;;;;;;;;;;;;;11.25;75.28;101050.86;85657;1339;23225;-74
2022/05/08 03:17:17;;;;;;;;;;;;;;;11.25;75.35;101059.08;85715;1338;23084;-72
2022/05/08 03:19:22;;;;;;;;;;;;;;;11.25;75.39;101056.48;85753;1335;22536;-72
2022/05/08 03:21:29;;;;;;;;;;;;;;;11.24;75.25;101054.25;85733;1338;22503;-72
2022/05/08 03:23:37;;;;;;;;;;;;;;;11.22;75.26;101054.98;85647;1336;22462;-72
2022/05/08 03:25:44;;;;;;;;;;;;;;;11.21;75.34;101057.13;85746;1333;22495;-73
2022/05/08 03:27:49;;;;;;;;;;;;;;;11.19;75.49;101057.54;85766;1338;22463;-72
2022/05/08 03:29:58;;;;;;;;;;;;;;;11.18;75.36;101053.01;85475;1339;23323;-72
2022/05/08 03:32:03;;;;;;;;;;;;;;;11.17;75.40;101055.83;85741;1336;23236;-73
2022/05/08 03:34:11;;;;;;;;;;;;;;;11.19;75.43;101055.26;85745;1335;23149;-73
2022/05/08 03:36:16;;;;;;;;;;;;;;;11.21;75.39;101058.86;85552;1341;23280;-73
2022/05/08 03:38:21;;;;;;;;;;;;;;;11.22;75.49;101060.23;85667;1339;22469;-72
2022/05/08 03:40:27;;;;;;;;;;;;;;;11.24;75.30;101060.88;85733;1337;23119;-72
2022/05/08 03:42:34;;;;;;;;;;;;;;;11.26;75.37;101063.58;85765;1336;22629;-73
2022/05/08 03:44:40;;;;;;;;;;;;;;;11.28;75.23;101064.41;85687;1339;23129;-73
2022/05/08 03:46:44;;;;;;;;;;;;;;;11.31;75.09;101066.59;85760;1338;22510;-73
2022/05/08 03:48:49;;;;;;;;;;;;;;;11.34;75.01;101067.05;85617;1337;23021;-73
2022/05/08 03:50:53;;;;;;;;;;;;;;;11.36;74.90;101073.77;85647;1337;22461;-72
2022/05/08 03:52:58;;;;;;;;;;;;;;;11.38;74.61;101075.11;85751;1338;23624;-73
2022/05/08 03:55:07;;;;;;;;;;;;;;;11.41;74.41;101071.19;85658;1339;23109;-73
2022/05/08 03:57:15;;;;;;;;;;;;;;;11.44;74.37;101078.10;85598;1339;22510;-73
2022/05/08 03:59:19;;;;;;;;;;;;;;;11.46;74.31;101084.84;85688;1338;23285;-73
2022/05/08 04:01:27;;;;;;;;;;;;;;;11.48;74.23;101090.38;85727;1335;23175;-73
2022/05/08 04:03:31;;;;;;;;;;;;;;;11.51;73.96;101093.60;85751;1336;23133;-73
2022/05/08 04:05:36;;;;;;;;;;;;;;;11.53;73.84;101089.70;85741;1338;22495;-72
2022/05/08 04:07:41;;;;;;;;;;;;;;;11.54;74.21;101091.40;85773;1338;22456;-72
2022/05/08 04:09:45;;;;;;;;;;;;;;;11.56;74.10;101095.36;85647;1340;23034;-72
2022/05/08 04:11:50;;;;;;;;;;;;;;;11.58;74.19;101094.59;85665;1339;22494;-73
2022/05/08 04:13:54;;;;;;;;;;;;;;;11.59;74.05;101096.34;85649;1336;23165;-74
2022/05/08 04:16:16;;;;;;;;;;;;;;;11.61;74.17;101098.52;85606;1334;22515;-74
2022/05/08 04:18:21;;;;;;;;;;;;;;;11.64;74.03;101096.86;85667;1339;23113;-72
2022/05/08 04:20:26;;;;;;;;;;;;;;;11.69;73.79;101097.77;85756;1338;23041;-73
2022/05/08 04:24:53;;;;;;;;;;;;;;;11.79;73.72;101102.00;85647;1336;23114;-74
2022/05/08 04:26:57;;;;;;;;;;;;;;;11.86;73.31;101094.30;85648;1336;23138;-74
2022/05/08 04:29:02;;;;;;;;;;;;;;;11.92;73.38;101100.23;85650;1339;22502;-74
2022/05/08 04:31:06;;;;;;;;;;;;;;;11.99;73.22;101108.02;85656;1336;23156;-74
2022/05/08 04:33:11;;;;;;;;;;;;;;;12.07;73.04;101109.36;85748;1337;22559;-72
2022/05/08 04:35:18;;;;;;;;;;;;;;;12.13;72.86;101107.94;85597;1339;23215;-73
2022/05/08 04:37:26;;;;;;;;;;;;;;;12.17;72.47;101107.98;85679;1338;22494;-72
2022/05/08 04:39:35;;;;;;;;;;;;;;;12.22;72.56;101108.18;85652;1339;23199;-72
2022/05/08 04:41:39;;;;;;;;;;;;;;;12.25;72.53;101108.42;85763;1338;23335;-73
2022/05/08 04:43:44;;;;;;;;;;;;;;;12.28;72.40;101103.09;85659;1339;22580;-73
2022/05/08 04:45:51;;;;;;;;;;;;;;;12.31;72.06;101104.88;85745;1336;23039;-74
2022/05/08 04:47:58;;;;;;;;;;;;;;;12.33;72.05;101105.34;85753;1336;23028;-72
2022/05/08 04:50:07;;;;;;;;;;;;;;;12.35;71.90;101105.63;85775;1338;22455;-73
2022/05/08 04:52:14;;;;;;;;;;;;;;;12.37;71.78;101111.51;85768;1338;22477;-73
2022/05/08 04:54:22;;;;;;;;;;;;;;;12.42;71.84;101109.59;85671;1339;22452;-74
2022/05/08 04:56:27;;;;;;;;;;;;;;;12.47;71.67;101113.27;85760;1338;22437;-75
2022/05/08 04:58:33;;;;;;;;;;;;;;;12.52;71.62;101113.10;85763;1338;22719;-74
2022/05/08 05:00:37;;;;;;;;;;;;;;;12.57;71.50;101111.35;85669;1337;23043;-74
2022/05/08 05:02:44;;;;;;;;;;;;;;;12.64;71.46;101111.45;85763;1338;22526;-73
2022/05/08 05:04:51;;;;;;;;;;;;;;;12.73;71.52;101108.88;85439;1338;451921;-73
2022/05/08 05:06:56;;;;;;;;;;;;;;;12.83;71.36;101110.10;85688;1339;23170;-73
2022/05/08 05:09:00;;;;;;;;;;;;;;;12.94;71.48;101115.67;85763;1338;22458;-75
2022/05/08 05:11:09;;;;;;;;;;;;;;;13.04;71.31;101121.42;85664;1339;22557;-74
2022/05/08 05:13:16;;;;;;;;;;;;;;;13.18;71.12;101119.85;85759;1335;22519;-72
2022/05/08 05:15:24;;;;;;;;;;;;;;;13.34;71.04;101121.95;85769;1338;23042;-73
2022/05/08 05:17:28;;;;;;;;;;;;;;;13.47;70.78;101125.32;85649;1339;22488;-73
2022/05/08 05:19:33;;;;;;;;;;;;;;;13.55;70.34;101124.66;85754;1338;23248;-73
2022/05/08 05:21:37;;;;;;;;;;;;;;;13.60;70.04;101128.30;85755;1338;22570;-73
2022/05/08 05:23:42;;;;;;;;;;;;;;;13.67;69.93;101126.45;85641;1340;23171;-72
2022/05/08 05:25:49;;;;;;;;;;;;;;;13.75;69.73;101130.02;85766;1337;22490;-72
2022/05/08 05:27:54;;;;;;;;;;;;;;;13.83;69.60;101135.32;85570;1341;22575;-72
2022/05/08 05:29:59;;;;;;;;;;;;;;;13.92;69.44;101137.39;85746;1336;23110;-73
2022/05/08 05:32:05;;;;;;;;;;;;;;;14.02;69.42;101135.45;85678;1336;22547;-73
2022/05/08 05:34:09;;;;;;;;;;;;;;;14.11;69.43;101142.10;85670;1337;23113;-73
2022/05/08 05:36:16;;;;;;;;;;;;;;;14.20;69.22;101142.41;85657;1339;23073;-73
2022/05/08 05:38:24;;;;;;;;;;;;;;;14.29;69.03;101143.29;85687;1339;22475;-73
2022/05/08 05:40:29;;;;;;;;;;;;;;;14.41;69.13;101143.85;85769;1338;22480;-73
2022/05/08 05:42:33;;;;;;;;;;;;;;;14.58;69.42;101148.61;85757;1336;23070;-73
2022/05/08 05:44:41;;;;;;;;;;;;;;;14.85;69.32;101146.39;85658;1336;23171;-72
2022/05/08 05:49:11;;;;;;;;;;;;;;;15.44;68.84;101156.39;85758;1336;22480;-73
2022/05/08 05:51:19;;;;;;;;;;;;;;;15.74;68.25;101158.55;85564;1339;22555;-74
2022/05/08 05:53:26;;;;;;;;;;;;;;;15.97;67.25;101157.84;85633;1340;23299;-73
2022/05/08 05:55:31;;;;;;;;;;;;;;;16.21;66.96;101153.12;85641;1337;23284;-73
2022/05/08 05:57:35;;;;;;;;;;;;;;;16.40;66.17;101153.43;85502;1341;22506;-73
2022/05/08 05:59:40;;;;;;;;;;;;;;;16.78;66.79;101158.42;85752;1338;23066;-73
2022/05/08 06:01:48;;;;;;;;;;;;;;;17.42;66.08;101157.19;85668;1336;22514;-73
2022/05/08 06:03:53;;;;;;;;;;;;;;;18.52;65.95;101152.89;85755;1337;22667;-72
2022/05/08 06:05:57;;;;;;;;;;;;;;;19.68;62.51;101158.42;85750;1338;23117;-73
2022/05/08 06:08:02;;;;;;;;;;;;;;;20.75;60.01;101155.83;85663;1339;23016;-73
2022/05/08 06:10:08;;;;;;;;;;;;;;;21.77;56.78;101153.64;85735;1337;22599;-74
2022/05/08 06:12:16;;;;;;;;;;;;;;;22.88;53.61;101149.09;85641;1339;23186;-76
2022/05/08 06:14:21;;;;;;;;;;;;;;;23.66;51.87;101154.90;85745;1336;23128;-74
2022/05/08 06:16:25;;;;;;;;;;;;;;;24.59;48.95;101144.39;85746;1336;22492;-74
2022/05/08 06:18:30;;;;;;;;;;;;;;;25.06;46.18;101146.67;85767;1336;22478;-74
2022/05/08 06:20:34;;;;;;;;;;;;;;;25.08;45.06;101144.64;85765;1337;23165;-74
2022/05/08 06:22:39;;;;;;;;;;;;;;;25.00;43.82;101145.76;85679;1333;22538;-74
2022/05/08 06:24:44;;;;;;;;;;;;;;;25.09;44.14;101143.91;85679;1336;23126;-72
2022/05/08 06:26:52;;;;;;;;;;;;;;;25.24;43.60;101143.48;85742;1338;22602;-73
2022/05/08 06:29:00;;;;;;;;;;;;;;;25.05;43.10;101143.45;85677;1336;22607;-72
2022/05/08 06:31:05;;;;;;;;;;;;;;;24.77;42.88;101145.00;85749;1337;22500;-72
2022/05/08 06:33:10;;;;;;;;;;;;;;;24.69;43.09;101147.48;85905;1331;22634;-79
2022/05/08 06:35:15;;;;;;;;;;;;;;;25.08;42.35;101149.14;85735;1338;22624;-82
2022/05/08 06:37:20;;;;;;;;;;;;;;;24.89;41.25;101150.20;85676;1336;23120;-73
2022/05/08 06:39:26;;;;;;;;;;;;;;;24.36;41.48;101151.52;85753;1336;23064;-73
2022/05/08 06:41:33;;;;;;;;;;;;;;;23.78;41.67;101156.99;85539;1337;22544;-72
2022/05/08 06:43:40;;;;;;;;;;;;;;;23.13;42.28;101158.08;85631;1339;23255;-80
2022/05/08 06:45:45;;;;;;;;;;;;;;;22.58;43.34;101157.11;85759;1338;22509;-80
2022/05/08 06:47:51;;;;;;;;;;;;;;;22.08;44.16;101163.15;85759;1337;22472;-80
2022/05/08 06:49:56;;;;;;;;;;;;;;;21.59;44.98;101164.91;85558;1340;23183;-79
2022/05/08 06:52:00;;;;;;;;;;;;;;;21.15;45.73;101169.82;85713;1336;23195;-80
2022/05/08 06:54:08;;;;;;;;;;;;;;;20.71;46.65;101171.35;85669;1339;23223;-73
2022/05/08 06:56:17;;;;;;;;;;;;;;;20.39;47.40;101175.26;85760;1336;22495;-72
2022/05/08 06:58:25;;;;;;;;;;;;;;;20.15;48.20;101172.98;85686;1337;23078;-72
2022/05/08 07:02:56;;;;;;;;;;;;;;;19.93;49.58;101172.98;85763;1336;23104;-80
2022/05/08 07:05:01;;;;;;;;;;;;;;;20.07;50.23;101172.44;85750;1338;23177;-80
2022/05/08 07:07:06;;;;;;;;;;;;;;;20.37;50.44;101169.02;85662;1339;22540;-79
2022/05/08 07:09:13;;;;;;;;;;;;;;;20.86;49.54;101168.59;85753;1337;23164;-72
2022/05/08 07:11:18;;;;;;;;;;;;;;;20.98;48.64;101172.02;85667;1339;22637;-72
2022/05/08 07:13:26;;;;;;;;;;;;;;;20.93;48.31;101170.10;85745;1337;22492;-73
2022/05/08 07:15:30;;;;;;;;;;;;;;;20.82;48.34;101175.92;85669;1336;23175;-72
2022/05/08 07:17:35;;;;;;;;;;;;;;;20.62;48.21;101175.16;85765;1335;22594;-77
2022/05/08 07:19:44;;;;;;;;;;;;;;;20.37;48.43;101174.55;85668;1336;22570;-73
2022/05/08 07:21:49;;;;;;;;;;;;;;;20.13;48.74;101179.30;85749;1338;22580;-73
2022/05/08 07:23:56;;;;;;;;;;;;;;;19.91;49.36;101179.46;85671;1337;22444;-76
2022/05/08 07:26:02;;;;;;;;;;;;;;;19.71;49.80;101178.81;85770;1337;23250;-75
2022/05/08 07:28:12;;;;;;;;;;;;;;;19.55;50.26;101183.66;85761;1336;22450;-74
2022/05/08 07:30:16;;;;;;;;;;;;;;;19.40;50.52;101182.66;85772;1338;22453;-76
2022/05/08 07:32:21;;;;;;;;;;;;;;;19.31;51.25;101183.02;85757;1336;23179;-75
2022/05/08 07:36:48;;;;;;;;;;;;;;;19.26;51.69;101178.93;85329;1341;22540;-74
2022/05/08 07:38:56;;;;;;;;;;;;;;;19.22;51.58;101177.61;85704;1337;23177;-71
2022/05/08 07:41:04;;;;;;;;;;;;;;;19.12;51.54;101180.34;85656;1336;23152;-71
2022/05/08 07:43:09;;;;;;;;;;;;;;;19.05;52.36;101179.48;85769;1335;22515;-74
2022/05/08 07:45:13;;;;;;;;;;;;;;;19.03;52.16;101178.57;85770;1336;23085;-71
2022/05/08 07:47:19;;;;;;;;;;;;;;;18.99;51.99;101178.77;85662;1338;23107;-74
2022/05/08 07:49:26;;;;;;;;;;;;;;;18.96;52.11;101183.76;85755;1335;23045;-75
2022/05/08 07:51:31;;;;;;;;;;;;;;;18.88;51.84;101182.62;85755;1338;22716;-74
2022/05/08 07:53:38;;;;;;;;;;;;;;;18.79;51.78;101185.45;85670;1334;22497;-74
2022/05/08 07:55:43;;;;;;;;;;;;;;;18.78;51.67;101185.03;85760;1336;22470;-74
2022/05/08 07:57:51;;;;;;;;;;;;;;;18.78;51.77;101184.98;85652;1338;23018;-75
2022/05/08 07:59:55;;;;;;;;;;;;;;;18.77;51.57;101185.59;85745;1337;23068;-73
2022/05/08 08:02:00;;;;;;;;;;;;;;;18.76;51.88;101190.24;85638;1336;23654;-76
2022/05/08 08:04:05;;;;;;;;;;;;;;;18.77;52.19;101191.42;85749;1335;23002;-76
2022/05/08 08:06:10;;;;;;;;;;;;;;;18.75;51.59;101193.11;85672;1339;23063;-76
2022/05/08 08:08:21;;;;;;;;;;;;;;;18.64;51.65;101194.11;85677;1336;23108;-72
2022/05/08 08:10:26;;;;;;;;;;;;;;;18.59;52.20;101198.12;85657;1336;23173;-72
2022/05/08 08:12:31;;;;;;;;;;;;;;;18.56;53.01;101195.42;85760;1337;23204;-75
2022/05/08 08:14:35;;;;;;;;;;;;;;;18.54;52.87;101195.77;85488;1339;22577;-76
2022/05/08 08:16:40;;;;;;;;;;;;;;;18.55;52.98;101193.38;85759;1337;23103;-76
2022/05/08 08:18:49;;;;;;;;;;;;;;;18.63;53.39;101196.48;85749;1338;22486;-72
2022/05/08 08:21:07;;;;;;;;;;;;;;;18.72;53.15;101193.85;85655;1336;22552;-73
2022/05/08 08:23:12;;;;;;;;;;;;;;;18.82;52.57;101188.99;85752;1336;23056;-72
2022/05/08 08:25:19;;;;;;;;;;;;;;;19.01;52.46;101188.95;85668;1339;23043;-72
2022/05/08 08:27:25;;;;;;;;;;;;;;;19.39;52.88;101189.08;85652;1336;23107;-76
2022/05/08 08:29:30;;;;;;;;;;;;;;;20.01;52.56;101188.02;85746;1338;22526;-76
2022/05/08 08:31:38;;;;;;;;;;;;;;;20.70;51.51;101184.95;85638;1339;23167;-75
2022/05/08 08:33:46;;;;;;;;;;;;;;;21.49;48.97;101189.59;85553;1339;23071;-75
2022/05/08 08:35:53;;;;;;;;;;;;;;;22.46;49.03;101186.57;85644;1336;22468;-76
2022/05/08 08:38:05;;;;;;;;;;;;;;;24.07;45.90;101188.82;85679;1337;22459;-75
2022/05/08 08:40:13;;;;;;;;;;;;;;;25.33;44.10;101189.08;85760;1336;22553;-76
2022/05/08 08:42:25;;;;;;;;;;;;;;;25.84;40.87;101188.07;85659;1339;23080;-73
2022/05/08 08:49:22;;;;;;;;;;;;;;;25.10;39.28;101188.77;85657;1335;22579;-76
2022/05/08 08:51:30;;;;;;;;;;;;;;;24.78;39.15;101189.00;85558;1339;22510;-76
2022/05/08 08:53:36;;;;;;;;;;;;;;;24.53;39.77;101195.73;85755;1338;23273;-74
2022/05/08 08:55:43;;;;;;;;;;;;;;;24.34;39.52;101194.42;85754;1337;23106;-73
2022/05/08 08:57:48;;;;;;;;;;;;;;;24.53;40.79;101190.38;85653;1336;23167;-76
2022/05/08 08:59:53;;;;;;;;;;;;;;;24.95;39.36;101185.08;85743;1336;23054;-76
2022/05/08 09:01:57;;;;;;;;;;;;;;;25.16;39.52;101182.36;85753;1336;22474;-78
2022/05/08 09:04:05;;;;;;;;;;;;;;;25.34;38.96;101183.35;85670;1336;23088;-77
2022/05/08 09:06:10;;;;;;;;;;;;;;;25.39;38.48;101183.25;85749;1336;22468;-83
2022/05/08 09:08:27;;;;;;;;;;;;;;;25.40;38.42;101186.70;85759;1332;23076;-80
2022/05/08 09:10:38;;;;;;;;;;;;;;;26.12;38.99;101183.89;85754;1336;22451;-79
2022/05/08 09:12:45;;;;;;;;;;;;;;;26.93;37.37;101186.44;85765;1335;23222;-81
2022/05/08 09:14:53;;;;;;;;;;;;;;;27.19;35.75;101178.95;85672;1339;22530;-80
2022/05/08 09:16:58;;;;;;;;;;;;;;;27.10;34.95;101183.45;85639;1336;22629;-83
2022/05/08 09:19:06;;;;;;;;;;;;;;;26.79;35.42;101186.30;85765;1337;22498;-84
2022/05/08 09:23:29;;;;;;;;;;;;;;;26.20;36.10;101189.21;85542;1338;23084;-72
2022/05/08 09:25:47;;;;;;;;;;;;;;;25.91;36.12;101186.46;85741;1337;23173;-72
2022/05/08 09:28:01;;;;;;;;;;;;;;;25.66;36.58;101183.14;85761;1337;23097;-72
2022/05/08 09:30:09;;;;;;;;;;;;;;;25.38;36.36;101183.64;85522;1341;23122;-72
2022/05/08 09:32:35;;;;;;;;;;;;;;;25.20;37.04;101183.82;85655;1338;22480;-72
2022/05/08 09:34:58;;;;;;;;;;;;;;;25.12;37.29;101191.68;85738;1337;23063;-71
2022/05/08 09:37:09;;;;;;;;;;;;;;;25.02;37.62;101189.99;85767;1336;22649;-72
2022/05/08 09:39:21;;;;;;;;;;;;;;;24.93;37.54;101192.50;85765;1337;22521;-77
2022/05/08 09:41:27;;;;;;;;;;;;;;;24.86;37.74;101191.38;85760;1337;22522;-77
2022/05/08 09:43:32;;;;;;;;;;;;;;;24.88;37.60;101193.46;85774;1335;23084;-77
2022/05/08 09:45:36;;;;;;;;;;;;;;;24.89;37.54;101192.48;85655;1339;22509;-78
2022/05/08 09:47:44;;;;;;;;;;;;;;;24.88;37.50;101193.34;85759;1336;22555;-79
2022/05/08 09:49:48;;;;;;;;;;;;;;;24.80;37.20;101195.11;85775;1336;23111;-76
2022/05/08 09:51:54;;;;;;;;;;;;;;;24.62;37.56;101197.88;85737;1336;22493;-77
2022/05/08 09:53:59;;;;;;;;;;;;;;;24.48;37.28;101199.77;85539;1337;22534;-77
2022/05/08 09:56:07;;;;;;;;;;;;;;;24.37;37.68;101200.50;85767;1337;23189;-77
2022/05/08 09:58:12;;;;;;;;;;;;;;;24.36;38.09;101201.99;85782;1335;22459;-77
2022/05/08 10:00:17;;;;;;;;;;;;;;;24.31;36.86;101204.33;85766;1338;22470;-77
2022/05/08 10:02:22;;;;;;;;;;;;;;;24.09;36.73;101204.31;85748;1336;22483;-76
2022/05/08 10:04:26;;;;;;;;;;;;;;;23.91;36.62;101206.14;85763;1336;22472;-77
2022/05/08 10:06:30;;;;;;;;;;;;;;;23.77;36.96;101210.38;85762;1337;22506;-77
2022/05/08 10:08:36;;;;;;;;;;;;;;;23.62;36.74;101208.71;85773;1336;23176;-72
2022/05/08 10:15:37;;;;;;;;;;;;;;;23.16;37.50;101209.05;85422;1338;23219;-72
2022/05/08 10:17:42;;;;;;;;;;;;;;;23.02;37.55;101208.71;85788;1336;22584;-72
2022/05/08 10:19:46;;;;;;;;;;;;;;;22.93;37.59;101205.55;85761;1335;22518;-72
2022/05/08 10:22:10;;;;;;;;;;;;;;;22.80;37.68;101204.33;85769;1336;22493;-72
2022/05/08 10:24:28;;;;;;;;;;;;;;;22.65;37.47;101209.02;85774;1336;22601;-74
2022/05/08 10:26:37;;;;;;;;;;;;;;;22.52;37.92;101207.21;85766;1336;23004;-75
2022/05/08 10:29:11;;;;;;;;;;;;;;;22.40;38.49;101208.08;85796;1336;22527;-75
2022/05/08 10:31:42;;;;;;;;;;;;;;;22.28;38.22;101209.84;85693;1338;22562;-75
2022/05/08 10:34:08;;;;;;;;;;;;;;;22.25;38.77;101210.10;85793;1338;23073;-75
2022/05/08 10:36:13;;;;;;;;;;;;;;;22.16;38.61;101208.07;85690;1336;22442;-76
2022/05/08 10:38:21;;;;;;;;;;;;;;;22.01;38.61;101207.20;85792;1337;23118;-75
2022/05/08 10:40:33;;;;;;;;;;;;;;;21.92;39.40;101203.40;85775;1337;23145;-75
2022/05/08 10:42:45;;;;;;;;;;;;;;;21.82;39.12;101201.63;85786;1337;22527;-74
2022/05/08 10:44:50;;;;;;;;;;;;;;;21.73;39.60;101194.29;85770;1335;23216;-75
2022/05/08 10:46:55;;;;;;;;;;;;;;;21.97;40.32;101194.32;85777;1336;22478;-77
2022/05/08 10:48:59;;;;;;;;;;;;;;;22.42;40.47;101189.08;85698;1336;23089;-72
2022/05/08 10:51:07;;;;;;;;;;;;;;;22.81;40.41;101188.77;85695;1340;22511;-72
2022/05/08 10:53:25;;;;;;;;;;;;;;;23.17;39.38;101186.38;85767;1338;23141;-72
2022/05/08 10:55:29;;;;;;;;;;;;;;;23.48;38.21;101188.25;85764;1336;22608;-72
2022/05/08 10:57:35;;;;;;;;;;;;;;;23.66;38.10;101187.54;85704;1338;23072;-72
2022/05/08 10:59:49;;;;;;;;;;;;;;;23.81;37.82;101184.90;85762;1336;22516;-72
2022/05/08 11:01:57;;;;;;;;;;;;;;;23.87;37.01;101181.01;85701;1336;22590;-72
2022/05/08 11:04:11;;;;;;;;;;;;;;;23.93;36.87;101178.39;85781;1336;23172;-72
2022/05/08 11:06:21;;;;;;;;;;;;;;;24.06;36.98;101180.04;85776;1336;22474;-72
2022/05/08 11:08:28;;;;;;;;;;;;;;;24.23;37.45;101175.95;85703;1340;23022;-76
2022/05/08 11:10:37;;;;;;;;;;;;;;;24.44;36.86;101167.27;85793;1338;22549;-77
2022/05/08 11:12:59;;;;;;;;;;;;;;;24.60;36.15;101165.55;85791;1335;23101;-72
2022/05/08 11:15:11;;;;;;;;;;;;;;;24.74;36.09;101162.23;85777;1335;22487;-72
2022/05/08 11:17:18;;;;;;;;;;;;;;;24.86;36.27;101164.25;85759;1336;23119;-78
2022/05/08 11:19:26;;;;;;;;;;;;;;;24.96;35.78;101161.77;85564;1339;23178;-77
2022/05/08 11:21:30;;;;;;;;;;;;;;;24.96;35.30;101164.80;85783;1337;23665;-76